• Join FlightAware (Why Join?)
  • Login
  • US Flag 
08:47AM EDT


 

Airport Tracker/Info


-or-


 

Live Flight TrackerFlight Track Log ✈ DAL61 ✈ 10-May-2013 ✈ KLGA - KATL

Flight Track Log - Related Links

Times and Time Zones

All times are in EDT time to prevent confusion due to time zone crossing. See the DAL61 flight status page for this flight to view local times or setup timezone preferences in your user account.

Time Position Orientation Groundspeed Altitude Reporting Facility
EDT Latitude Longitude Course Direction KTS MPH feet Rate Location/Type
06:36PM 40.7667 -73.8500 270° West 160 184 1,000  Level New York TRACON
06:37PM 40.7833 -73.7833 72° East 238 274 3,300 2,340 Climbing New York TRACON
06:38PM 40.6907 -74.2558 258° West  Level FlightAware Approximate
06:38PM 40.8333 -73.7833 360° North 265 305 6,000  Level New York TRACON
06:39PM 40.6672 -74.3968 258° West  Level FlightAware Approximate
06:39PM 40.8833 -73.8500 315° West 266 306 9,000  Level New York TRACON
06:40PM 40.6454 -74.5383 259° West  Level FlightAware Approximate
06:40PM 40.8833 -73.9500 270° West 265 305 11,600  Level New York TRACON
06:41PM 40.6167 -74.6701 270° West  Level FlightAware Approximate
06:41PM 40.8667 -74.0500 258° West 323 372 12,900  Level New York TRACON
06:42PM 40.8333 -74.1833 252° West 378 435 14,600 1,260 Climbing New York TRACON
06:43PM 40.7833 -74.3167 244° Southwest 393 452 15,500 900 Climbing New York TRACON
06:44PM 40.7208 -74.5194 248° West 389 448 17,000 1,260 Climbing New York Center
06:45PM 40.6789 -74.6539 248° West 394 453 18,900 1,860 Climbing New York Center
06:46PM 40.6347 -74.7908 247° West 406 467 20,800 1,800 Climbing New York Center
06:47PM 40.5881 -74.9358 247° West 412 474 22,500 1,560 Climbing New York Center
06:48PM 40.5289 -75.0769 241° Southwest 426 490 24,000 720 Climbing New York Center
06:49PM 40.4556 -75.1978 231° Southwest 426 490 24,000  Level New York Center
06:50PM 40.3781 -75.3181 230° Southwest 437 503 24,000  Level New York Center
06:51PM 40.3003 -75.4436 231° Southwest 443 510 24,000  Level New York Center
06:52PM 40.2225 -75.5661 230° Southwest 443 510 24,000  Level New York Center
06:53PM 40.1567 -75.6975 237° Southwest 443 510 24,000  Level New York Center
06:54PM 40.0883 -75.8311 236° Southwest 443 510 24,000  Level New York Center
06:55PM 40.0222 -75.9592 236° Southwest 438 504 24,000  Level New York Center
06:56PM 39.9539 -76.0922 236° Southwest 438 504 24,000  Level New York Center
06:57PM 39.9011 -76.1964 237° Southwest 438 504 24,000  Level New York Center
06:58PM 39.8136 -76.3328 230° Southwest 444 511 24,000  Level New York Center
06:59PM 39.7308 -76.4478 227° Southwest 444 511 24,000  Level New York Center
07:00PM 39.6442 -76.5594 225° Southwest 449 517 24,000  Level New York Center
07:01PM 39.5442 -76.6894 225° Southwest 433 498 24,000  Level Washington Center
07:02PM 39.4575 -76.8011 225° Southwest 427 491 24,000  Level Washington Center
07:03PM 39.3750 -76.9097 226° Southwest 427 491 24,000  Level Washington Center
07:04PM 39.2906 -77.0208 226° Southwest 432 497 24,000  Level Washington Center
07:05PM 39.2078 -77.1317 226° Southwest 432 497 24,100 720 Climbing Washington Center
07:06PM 39.1208 -77.2450 225° Southwest 432 497 25,500 1,740 Climbing Washington Center
07:07PM 39.0339 -77.3606 226° Southwest 443 510 27,600 1,200 Climbing Washington Center
07:08PM 38.9489 -77.4681 225° Southwest 443 510 28,000 180 Climbing Washington Center
07:09PM 38.8719 -77.5728 227° Southwest 443 510 28,000  Level Washington Center
07:10PM 38.7828 -77.6794 223° Southwest 448 516 28,000  Level Washington Center
07:11PM 38.6994 -77.7917 226° Southwest 448 516 28,000  Level Washington Center
07:12PM 38.6139 -77.9086 227° Southwest 448 516 28,000  Level Washington Center
07:13PM 38.5425 -78.0339 234° Southwest 448 516 28,000  Level Washington Center
07:14PM 38.4711 -78.1586 234° Southwest 448 516 28,000  Level Washington Center
07:15PM 38.3975 -78.2833 233° Southwest 448 516 28,000  Level Washington Center
07:16PM 38.3217 -78.4075 232° Southwest 448 516 28,000  Level Washington Center
07:17PM 38.2475 -78.5397 234° Southwest 439 505 28,000  Level Washington Center
07:18PM 38.1736 -78.6608 232° Southwest 439 505 28,000  Level Washington Center
07:19PM 38.0839 -78.7417 215° Southwest 439 505 28,000 900 Level Washington Center
07:20PM 37.9778 -78.8111 207° Southwest 434 499 29,900 960 Climbing Washington Center
07:21PM 37.8717 -78.8828 208° Southwest 439 505 30,000  Climbing Washington Center
07:22PM 37.7633 -78.9569 208° Southwest 439 505 30,000  Level Washington Center
07:23PM 37.6442 -79.0381 208° Southwest 445 512 30,000  Level Washington Center
07:24PM 37.5356 -79.1144 209° Southwest 452 520 30,000  Level Washington Center
07:25PM 37.4247 -79.1931 209° Southwest 452 520 30,000  Level Washington Center
07:26PM 37.3139 -79.2686 208° Southwest 452 520 30,000  Level Washington Center
07:27PM 37.2072 -79.3417 209° Southwest 452 520 30,000  Level Washington Center
07:28PM 37.1214 -79.4208 216° Southwest 447 514 30,000  Level Washington Center
07:29PM 37.0486 -79.5397 233° Southwest 426 490 30,000  Level Washington Center
07:31PM 36.9178 -79.7550 233° Southwest 430 495 30,000  Level Atlanta Center
07:32PM 36.8431 -79.8836 234° Southwest 430 495 30,000  Level Atlanta Center
07:33PM 36.7697 -80.0014 232° Southwest 430 495 30,000  Level Atlanta Center
07:34PM 36.6986 -80.1189 233° Southwest 430 495 30,000  Level Atlanta Center
07:35PM 36.6292 -80.2386 234° Southwest 430 495 30,000  Level Atlanta Center
07:36PM 36.5636 -80.3453 233° Southwest 430 495 30,000  Level Atlanta Center
07:37PM 36.4942 -80.4622 234° Southwest 430 495 30,000  Level Atlanta Center
07:38PM 36.4186 -80.5892 234° Southwest 425 489 30,000  Level Atlanta Center
07:39PM 36.3489 -80.7056 233° Southwest 425 489 30,000  Level Atlanta Center
07:40PM 36.2828 -80.8114 232° Southwest 425 489 30,000  Level Atlanta Center
07:41PM 36.2128 -80.9250 233° Southwest 425 489 30,000  Level Atlanta Center
07:42PM 36.1406 -81.0383 232° Southwest 425 489 30,000  Level Atlanta Center
07:43PM 36.0725 -81.1564 235° Southwest 425 489 30,000  Level Atlanta Center
07:44PM 36.0000 -81.2694 232° Southwest 425 489 30,000  Level Atlanta Center
07:45PM 35.9294 -81.3872 234° Southwest 425 489 30,000  Level Atlanta Center
07:46PM 35.8608 -81.4994 233° Southwest 430 495 30,000  Level Atlanta Center
07:47PM 35.7881 -81.6144 232° Southwest 424 488 30,000  Level Atlanta Center
07:48PM 35.7153 -81.7292 232° Southwest 424 488 30,000  Level Atlanta Center
07:49PM 35.6422 -81.8436 232° Southwest 429 494 30,000  Level Atlanta Center
07:50PM 35.5692 -81.9553 231° Southwest 429 494 30,000  Level Atlanta Center
07:51PM 35.4958 -82.0694 232° Southwest 429 494 30,000  Level Atlanta Center
07:52PM 35.4164 -82.1961 232° Southwest 429 494 30,000 -420 Level Atlanta Center
07:53PM 35.3431 -82.3100 232° Southwest 429 494 29,200 -780 Descending Atlanta Center
07:54PM 35.2778 -82.4131 232° Southwest 410 472 28,500 -900 Descending Atlanta Center
07:55PM 35.2103 -82.5161 231° Southwest 399 459 27,400 -1,140 Descending Atlanta Center
07:56PM 35.1447 -82.6164 231° Southwest 392 451 26,300 -1,020 Descending Atlanta Center
07:57PM 35.0789 -82.7164 231° Southwest 387 445 25,400 -1,200 Descending Atlanta Center
07:58PM 35.0153 -82.8139 231° Southwest 382 440 24,000 -1,440 Descending Atlanta Center
07:59PM 34.9431 -82.9011 225° Southwest 377 434 22,600 -1,440 Descending Atlanta Center
08:00PM 34.8667 -82.9806 220° Southwest 365 420 21,200 -1,320 Descending Atlanta Center
08:01PM 34.7964 -83.0625 224° Southwest 360 414 20,000 -600 Descending Atlanta Center
08:02PM 34.7219 -83.1442 222° Southwest 360 414 20,000  Level Atlanta Center
08:03PM 34.6536 -83.2256 224° Southwest 355 409 20,000  Level Atlanta Center
08:04PM 34.5789 -83.3047 221° Southwest 355 409 20,000 -240 Level Atlanta Center
08:05PM 34.5083 -83.3833 223° Southwest 355 409 19,600 -720 Descending Atlanta Center
08:06PM 34.4797 -83.4794 250° West 327 376 18,600 -1,320 Descending Atlanta Center
08:07PM 34.4342 -83.5628 236° Southwest 311 358 17,000 -1,620 Descending Atlanta Center
08:08PM 34.3675 -83.6161 213° Southwest 291 335 15,400 -1,320 Descending Atlanta Center
08:09PM 34.3114 -83.6667 217° Southwest 291 335 14,400 -1,200 Descending Atlanta Center
08:10PM 34.2489 -83.7147 212° Southwest 279 321 13,100 -1,200 Descending Atlanta Center
08:11PM 34.1906 -83.7625 214° Southwest 263 303 12,000 -600 Descending Atlanta Center
08:12PM 34.1364 -83.8078 215° Southwest 257 296 12,000 -60 Level Atlanta Center
08:13PM 34.0781 -83.8558 214° Southwest 257 296 11,900 -660 Descending Atlanta Center
08:14PM 34.0333 -83.8833 207° Southwest 248 285 11,000 -1,200 Descending Atlanta TRACON
08:15PM 33.9833 -83.9500 228° Southwest 254 292 10,100 -840 Descending Atlanta TRACON
08:16PM 33.9333 -83.9667 195° South 259 298 9,400 -540 Descending Atlanta TRACON
08:17PM 33.8500 -83.9833 189° South 256 295 9,100 -300 Descending Atlanta TRACON
08:17PM 33.8256 -83.9789 171° South 253 291 9,000 -540 Descending Atlanta Center
08:18PM 33.7567 -84.0014 195° South 259 298 8,400 -960 Descending Atlanta Center
08:19PM 33.6942 -84.0364 205° Southwest 254 292 7,100 -1,320 Descending Atlanta Center
08:21PM 33.6333 -84.1333 233° Southwest 203 234 4,900 -1,200 Descending Atlanta TRACON
08:22PM 33.6333 -84.2000 270° West 217 250 4,000 -840 Descending Atlanta TRACON
08:23PM 33.6333 -84.2833 270° West 211 243 3,300 -720 Descending Atlanta TRACON